Time;durP1;ratioP1;P1;durP2;ratioP2;P2;SDS_P1;SDS_P2;PMS_P1;PMS_P2;Temp;Humidity;BMP_temperature;BMP_pressure;BME280_temperature;BME280_humidity;BME280_pressure;Samples;Min_cycle;Max_cycle;Signal;HPM_P1;HPM_P2
2021/09/30 00:00:17;;;;;;;7.47;1.33;;;;;;;;;;5005927;28;20026;-59
2021/09/30 00:02:43;;;;;;;5.28;0.75;;;;;;;;;;5006041;28;20366;-59
2021/09/30 00:05:10;;;;;;;5.68;0.93;;;;;;;;;;5006333;28;20042;-59
2021/09/30 00:07:36;;;;;;;5.93;1.08;;;;;;;;;;5005577;28;20791;-59
2021/09/30 00:10:04;;;;;;;4.13;0.75;;;;;;;;;;5001414;28;20045;-59
2021/09/30 00:12:33;;;;;;;4.53;0.68;;;;;;;;;;5008015;28;20028;-59
2021/09/30 00:17:45;;;;;;;4.28;0.70;;;;;;;;;;5005792;28;20434;-59
2021/09/30 00:52:15;;;;;;;4.53;0.65;;;;;;;;;;5005423;28;20036;-58
2021/09/30 01:18:41;;;;;;;3.13;0.60;;;;;;;;;;4997592;28;20170;-59
2021/09/30 02:24:20;;;;;;;3.17;0.20;;;;;;;;;;4993786;28;20026;-58
2021/09/30 02:59:44;;;;;;;1.35;0.10;;;;;;;;;;5000609;28;20037;-59
2021/09/30 03:02:11;;;;;;;0.13;0.10;;;;;;;;;;4999140;28;20037;-58
2021/09/30 03:04:38;;;;;;;1.17;0.20;;;;;;;;;;4995031;28;20084;-59
2021/09/30 03:07:06;;;;;;;0.10;0.10;;;;;;;;;;4998499;28;20034;-57
2021/09/30 03:09:43;;;;;;;0.20;0.20;;;;;;;;;;4995194;28;20153;-57
2021/09/30 03:14:57;;;;;;;0.40;0.20;;;;;;;;;;5003453;28;20034;-58
2021/09/30 03:17:30;;;;;;;0.63;0.20;;;;;;;;;;4998985;28;20073;-58
2021/09/30 03:20:03;;;;;;;0.38;0.20;;;;;;;;;;4993296;28;20042;-57
2021/09/30 03:22:32;;;;;;;0.47;0.20;;;;;;;;;;5001988;28;20536;-57
2021/09/30 03:24:58;;;;;;;2.08;0.20;;;;;;;;;;4993998;28;20116;-57
2021/09/30 03:27:25;;;;;;;1.45;0.20;;;;;;;;;;4993751;28;20129;-57
2021/09/30 03:29:51;;;;;;;0.10;0.10;;;;;;;;;;4997581;28;20026;-57
2021/09/30 03:32:17;;;;;;;0.88;0.22;;;;;;;;;;4999202;28;20092;-57
2021/09/30 03:34:45;;;;;;;1.90;0.10;;;;;;;;;;4999408;28;20091;-57
2021/09/30 03:37:11;;;;;;;3.65;0.30;;;;;;;;;;4998900;28;20030;-58
2021/09/30 03:39:36;;;;;;;0.40;0.20;;;;;;;;;;4994028;28;20044;-57
2021/09/30 03:42:02;;;;;;;0.47;0.17;;;;;;;;;;5001030;28;20073;-57
2021/09/30 03:44:28;;;;;;;1.10;0.20;;;;;;;;;;4996431;28;20038;-57
2021/09/30 03:46:54;;;;;;;0.55;0.20;;;;;;;;;;5001600;28;20045;-57
2021/09/30 03:49:38;;;;;;;2.65;0.40;;;;;;;;;;4997946;28;20090;-57
2021/09/30 04:00:21;;;;;;;1.25;0.13;;;;;;;;;;4996854;28;20138;-57
2021/09/30 04:02:47;;;;;;;2.45;0.30;;;;;;;;;;4998509;28;20065;-57
2021/09/30 04:05:12;;;;;;;1.60;0.22;;;;;;;;;;5003958;28;20038;-58
2021/09/30 04:07:38;;;;;;;1.13;0.13;;;;;;;;;;4998608;28;20053;-57
2021/09/30 04:10:04;;;;;;;1.73;0.20;;;;;;;;;;4997218;28;20030;-58
2021/09/30 04:12:30;;;;;;;3.83;0.40;;;;;;;;;;5000920;28;20026;-57
2021/09/30 04:14:55;;;;;;;2.13;0.30;;;;;;;;;;4997683;28;20426;-57
2021/09/30 04:17:21;;;;;;;1.83;0.20;;;;;;;;;;4994037;28;20278;-58
2021/09/30 04:19:46;;;;;;;0.80;0.20;;;;;;;;;;4996114;28;20056;-58
2021/09/30 04:22:12;;;;;;;0.88;0.20;;;;;;;;;;5001135;28;20045;-57
2021/09/30 04:24:39;;;;;;;1.77;0.25;;;;;;;;;;5003548;28;20061;-57
2021/09/30 04:27:05;;;;;;;0.85;0.28;;;;;;;;;;5005627;28;20045;-57
2021/09/30 04:29:31;;;;;;;0.50;0.20;;;;;;;;;;5000067;28;20026;-58
2021/09/30 04:31:56;;;;;;;1.17;0.10;;;;;;;;;;4998462;28;20547;-58
2021/09/30 04:34:22;;;;;;;3.30;0.17;;;;;;;;;;5004038;28;20034;-57
2021/09/30 04:36:47;;;;;;;1.55;0.20;;;;;;;;;;4998133;28;20040;-57
2021/09/30 04:39:14;;;;;;;0.57;0.10;;;;;;;;;;4996772;28;20062;-57
2021/09/30 04:41:43;;;;;;;2.35;0.63;;;;;;;;;;5001776;28;20496;-57
2021/09/30 04:44:09;;;;;;;0.68;0.15;;;;;;;;;;5001084;28;20049;-57
2021/09/30 04:46:34;;;;;;;0.30;0.10;;;;;;;;;;5002016;28;20026;-57
2021/09/30 04:49:00;;;;;;;0.17;0.10;;;;;;;;;;4998809;28;20034;-57
2021/09/30 04:51:25;;;;;;;0.10;0.10;;;;;;;;;;5000748;28;20026;-57
2021/09/30 04:53:50;;;;;;;0.55;0.20;;;;;;;;;;4999439;28;20054;-57
2021/09/30 04:56:16;;;;;;;0.30;0.10;;;;;;;;;;5000570;28;20037;-57
2021/09/30 04:58:42;;;;;;;0.50;0.10;;;;;;;;;;4998742;28;20049;-57
2021/09/30 05:01:07;;;;;;;0.20;0.10;;;;;;;;;;4996767;28;20085;-57
2021/09/30 05:03:33;;;;;;;0.93;0.20;;;;;;;;;;4999455;28;20042;-57
2021/09/30 05:05:58;;;;;;;0.10;0.10;;;;;;;;;;4999832;28;20579;-58
2021/09/30 05:08:24;;;;;;;0.10;0.10;;;;;;;;;;5005589;28;20412;-57
2021/09/30 05:10:50;;;;;;;0.10;0.10;;;;;;;;;;4995990;28;20030;-57
2021/09/30 05:13:19;;;;;;;2.45;0.13;;;;;;;;;;4996253;28;20026;-57
2021/09/30 05:15:44;;;;;;;0.28;0.10;;;;;;;;;;4993071;28;20124;-57
2021/09/30 05:18:11;;;;;;;0.17;0.15;;;;;;;;;;5001579;28;20030;-58
2021/09/30 05:20:37;;;;;;;0.00;0.00;;;;;;;;;;5000195;28;20034;-58
2021/09/30 05:23:03;;;;;;;0.17;0.00;;;;;;;;;;4998501;28;20029;-57
2021/09/30 05:25:29;;;;;;;0.75;0.10;;;;;;;;;;4996852;28;20527;-57
2021/09/30 05:27:55;;;;;;;0.52;0.20;;;;;;;;;;4992084;28;20398;-57
2021/09/30 05:30:22;;;;;;;0.65;0.10;;;;;;;;;;4998550;28;20036;-58
2021/09/30 05:32:48;;;;;;;0.47;0.20;;;;;;;;;;5000055;28;20177;-57
2021/09/30 05:35:14;;;;;;;1.60;0.10;;;;;;;;;;4994469;28;20032;-57
2021/09/30 05:37:40;;;;;;;1.75;0.20;;;;;;;;;;4996028;28;20539;-57
2021/09/30 05:40:06;;;;;;;1.08;0.10;;;;;;;;;;4995179;28;20034;-57
2021/09/30 05:42:32;;;;;;;0.57;0.10;;;;;;;;;;4994900;28;20035;-57
2021/09/30 05:45:00;;;;;;;1.17;0.20;;;;;;;;;;4996145;28;20429;-58
2021/09/30 05:47:25;;;;;;;0.32;0.10;;;;;;;;;;4990726;28;20035;-57
2021/09/30 05:49:51;;;;;;;3.40;0.10;;;;;;;;;;4994326;28;20041;-58
2021/09/30 05:52:16;;;;;;;0.17;0.10;;;;;;;;;;5000800;28;20041;-60
2021/09/30 05:54:42;;;;;;;0.82;0.17;;;;;;;;;;5018293;28;20045;-60
2021/09/30 05:57:07;;;;;;;1.45;0.10;;;;;;;;;;5003192;28;20108;-60
2021/09/30 05:59:33;;;;;;;0.30;0.15;;;;;;;;;;4993390;28;20025;-60
2021/09/30 06:10:17;;;;;;;1.92;0.35;;;;;;;;;;5001494;28;20123;-60
2021/09/30 06:12:47;;;;;;;0.95;0.20;;;;;;;;;;4998953;28;20443;-59
2021/09/30 06:15:23;;;;;;;0.32;0.10;;;;;;;;;;5000169;28;20017;-59
2021/09/30 06:17:49;;;;;;;3.10;0.10;;;;;;;;;;5003808;28;20520;-58
2021/09/30 06:20:15;;;;;;;1.50;0.20;;;;;;;;;;5001219;28;20026;-59
2021/09/30 06:22:40;;;;;;;1.80;0.10;;;;;;;;;;4996728;28;20410;-59
2021/09/30 06:25:06;;;;;;;1.08;0.20;;;;;;;;;;4997722;28;20440;-61
2021/09/30 06:27:32;;;;;;;1.83;0.20;;;;;;;;;;4992885;28;20069;-61
2021/09/30 06:29:58;;;;;;;1.83;0.20;;;;;;;;;;4989422;28;20022;-59
2021/09/30 06:32:23;;;;;;;1.38;0.15;;;;;;;;;;4998258;28;20341;-60
2021/09/30 06:34:49;;;;;;;1.30;0.22;;;;;;;;;;4997393;28;20413;-59
2021/09/30 06:37:14;;;;;;;1.75;0.20;;;;;;;;;;5002765;28;20503;-60
2021/09/30 06:39:39;;;;;;;1.08;0.17;;;;;;;;;;4999455;28;20037;-58
2021/09/30 06:42:05;;;;;;;0.63;0.20;;;;;;;;;;4997788;28;20029;-58
2021/09/30 06:44:31;;;;;;;1.42;0.20;;;;;;;;;;4992745;28;20438;-58
2021/09/30 06:46:56;;;;;;;0.65;0.20;;;;;;;;;;5000235;28;20234;-59
2021/09/30 06:49:22;;;;;;;1.15;0.25;;;;;;;;;;4990110;28;20037;-59
2021/09/30 08:19:09;;;;;;;1.45;0.40;;;;;;;;;;4990720;28;20125;-57
2021/09/30 08:21:36;;;;;;;1.88;0.20;;;;;;;;;;4984614;28;20116;-57
2021/09/30 08:24:01;;;;;;;2.25;0.50;;;;;;;;;;4996428;28;20037;-57
2021/09/30 08:26:28;;;;;;;1.25;0.32;;;;;;;;;;4996460;28;20038;-57
2021/09/30 08:28:55;;;;;;;4.22;0.57;;;;;;;;;;4990935;28;20464;-57
2021/09/30 08:31:22;;;;;;;1.63;0.20;;;;;;;;;;4984453;28;20096;-57
2021/09/30 08:33:49;;;;;;;3.67;0.30;;;;;;;;;;4998947;28;20392;-60
2021/09/30 08:36:15;;;;;;;1.83;0.35;;;;;;;;;;5004130;28;20045;-57
2021/09/30 08:38:44;;;;;;;5.40;0.32;;;;;;;;;;4989301;28;20405;-57
2021/09/30 08:41:12;;;;;;;3.95;0.60;;;;;;;;;;4985724;28;20022;-57
2021/09/30 08:43:37;;;;;;;3.50;0.30;;;;;;;;;;4998698;28;20034;-57
2021/09/30 08:46:05;;;;;;;4.97;0.50;;;;;;;;;;4996548;28;20026;-57
2021/09/30 08:48:31;;;;;;;1.38;0.30;;;;;;;;;;5000138;28;20631;-57
2021/09/30 08:50:57;;;;;;;1.45;0.30;;;;;;;;;;4975133;28;20038;-60
2021/09/30 08:53:23;;;;;;;5.85;0.28;;;;;;;;;;4991626;28;20532;-59
2021/09/30 08:55:48;;;;;;;2.75;0.28;;;;;;;;;;4996904;28;20131;-59
2021/09/30 08:58:14;;;;;;;1.00;0.20;;;;;;;;;;4998915;28;20121;-59
2021/09/30 09:00:42;;;;;;;2.50;0.30;;;;;;;;;;4997921;28;20026;-59
2021/09/30 09:03:08;;;;;;;2.92;0.30;;;;;;;;;;4994534;28;20042;-59
2021/09/30 09:05:37;;;;;;;1.20;0.50;;;;;;;;;;4994768;28;20635;-60
2021/09/30 09:08:06;;;;;;;3.30;0.50;;;;;;;;;;4995651;28;20037;-61
2021/09/30 09:10:40;;;;;;;0.85;0.20;;;;;;;;;;4995732;28;20034;-61
2021/09/30 09:13:14;;;;;;;1.75;0.20;;;;;;;;;;4996795;28;20034;-60
2021/09/30 09:15:48;;;;;;;0.20;0.20;;;;;;;;;;4988592;28;20029;-60
2021/09/30 09:18:22;;;;;;;0.93;0.20;;;;;;;;;;4998121;28;20056;-60
2021/09/30 09:21:09;;;;;;;1.38;0.20;;;;;;;;;;4998547;28;20038;-60
2021/09/30 09:23:57;;;;;;;2.92;0.50;;;;;;;;;;4990971;28;20429;-60
2021/09/30 09:26:34;;;;;;;1.05;0.68;;;;;;;;;;4989339;28;20026;-60
2021/09/30 09:29:07;;;;;;;2.40;0.50;;;;;;;;;;4996616;28;20046;-60
2021/09/30 09:31:35;;;;;;;4.18;0.57;;;;;;;;;;4996368;28;20038;-60
2021/09/30 09:34:21;;;;;;;0.52;0.32;;;;;;;;;;4999319;28;20516;-60
2021/09/30 09:36:49;;;;;;;3.20;0.30;;;;;;;;;;4999061;28;20080;-60
2021/09/30 09:39:16;;;;;;;5.70;0.65;;;;;;;;;;4997913;28;20083;-60
2021/09/30 09:41:42;;;;;;;2.85;0.50;;;;;;;;;;5000019;28;20108;-59
2021/09/30 09:44:07;;;;;;;3.28;0.35;;;;;;;;;;4996478;28;20467;-60
2021/09/30 09:46:35;;;;;;;2.80;0.60;;;;;;;;;;4995725;28;20453;-60
2021/09/30 09:49:03;;;;;;;6.03;1.13;;;;;;;;;;4997136;28;20412;-59
2021/09/30 09:51:45;;;;;;;5.85;0.50;;;;;;;;;;4995102;28;20030;-60
2021/09/30 09:54:13;;;;;;;9.05;2.17;;;;;;;;;;4991103;28;20026;-60
2021/09/30 09:56:40;;;;;;;3.60;0.40;;;;;;;;;;4998622;28;20030;-59
2021/09/30 09:59:06;;;;;;;5.80;1.05;;;;;;;;;;4994199;28;20311;-60
2021/09/30 10:01:45;;;;;;;3.25;0.50;;;;;;;;;;4999428;28;20126;-60
2021/09/30 10:04:12;;;;;;;1.30;0.50;;;;;;;;;;4999572;28;20533;-60
2021/09/30 10:06:39;;;;;;;5.72;0.98;;;;;;;;;;4997813;28;20085;-60
2021/09/30 10:09:07;;;;;;;6.60;0.70;;;;;;;;;;4994204;28;20033;-60
2021/09/30 10:11:33;;;;;;;4.40;0.80;;;;;;;;;;4992166;28;20213;-60
2021/09/30 10:14:02;;;;;;;7.75;1.58;;;;;;;;;;4993010;28;20041;-60
2021/09/30 10:16:29;;;;;;;3.72;0.70;;;;;;;;;;4990507;28;20103;-60
2021/09/30 10:19:00;;;;;;;2.20;0.50;;;;;;;;;;4994121;28;20501;-60
2021/09/30 10:21:28;;;;;;;7.70;0.85;;;;;;;;;;4999458;28;20036;-60
2021/09/30 10:24:02;;;;;;;2.95;0.57;;;;;;;;;;4994500;28;20544;-59
2021/09/30 10:26:44;;;;;;;7.07;1.13;;;;;;;;;;4991262;28;20416;-59
2021/09/30 10:29:09;;;;;;;3.67;0.40;;;;;;;;;;4988042;28;20038;-59
2021/09/30 10:31:37;;;;;;;3.42;0.60;;;;;;;;;;4994362;28;20034;-59
2021/09/30 10:34:07;;;;;;;7.13;0.75;;;;;;;;;;4987981;28;20531;-60
2021/09/30 10:36:44;;;;;;;5.82;0.85;;;;;;;;;;4995506;28;20030;-59
2021/09/30 10:39:16;;;;;;;3.92;0.50;;;;;;;;;;4988679;28;20030;-60
2021/09/30 10:41:41;;;;;;;5.45;1.33;;;;;;;;;;4995402;28;20084;-59
2021/09/30 10:44:16;;;;;;;3.85;0.68;;;;;;;;;;4994715;28;20042;-59
2021/09/30 10:46:42;;;;;;;4.45;0.65;;;;;;;;;;4990588;28;20076;-59
2021/09/30 10:49:51;;;;;;;2.22;0.40;;;;;;;;;;4994763;28;20390;-59
2021/09/30 10:52:16;;;;;;;4.35;0.50;;;;;;;;;;4989157;28;20056;-60
2021/09/30 10:54:47;;;;;;;4.00;0.30;;;;;;;;;;4990057;28;20104;-59
2021/09/30 10:57:39;;;;;;;1.88;0.40;;;;;;;;;;4992831;28;20136;-59
2021/09/30 11:00:10;;;;;;;3.15;0.30;;;;;;;;;;4991090;28;20034;-59
2021/09/30 11:03:01;;;;;;;5.13;0.68;;;;;;;;;;4991891;28;20497;-60
2021/09/30 11:05:35;;;;;;;3.00;0.65;;;;;;;;;;4995440;28;20076;-59
2021/09/30 11:08:20;;;;;;;4.00;0.60;;;;;;;;;;4988340;28;20026;-59
2021/09/30 11:11:23;;;;;;;3.47;0.38;;;;;;;;;;4990982;28;20026;-59
2021/09/30 11:13:54;;;;;;;8.02;1.45;;;;;;;;;;4984427;28;20045;-60
2021/09/30 11:16:32;;;;;;;11.05;1.67;;;;;;;;;;4994328;28;20031;-60
2021/09/30 11:19:00;;;;;;;9.32;2.15;;;;;;;;;;4993992;28;20419;-60
2021/09/30 11:24:05;;;;;;;10.20;1.48;;;;;;;;;;5000225;28;20473;-60
2021/09/30 11:26:32;;;;;;;12.77;2.13;;;;;;;;;;4993512;28;20559;-60
2021/09/30 11:29:23;;;;;;;13.98;1.45;;;;;;;;;;4994331;28;20037;-61
2021/09/30 11:32:08;;;;;;;17.17;1.88;;;;;;;;;;4999492;28;20401;-60
2021/09/30 11:34:40;;;;;;;10.82;1.13;;;;;;;;;;4995682;28;20031;-60
2021/09/30 11:37:24;;;;;;;10.52;1.60;;;;;;;;;;5003827;28;20495;-60
2021/09/30 11:39:52;;;;;;;15.27;1.90;;;;;;;;;;4994087;28;20038;-60
2021/09/30 11:42:20;;;;;;;16.05;1.60;;;;;;;;;;4999855;28;20889;-59
2021/09/30 11:45:02;;;;;;;19.13;2.25;;;;;;;;;;5002276;28;20052;-59
2021/09/30 11:47:30;;;;;;;16.65;2.17;;;;;;;;;;4999234;28;20034;-59
2021/09/30 11:49:57;;;;;;;19.13;2.70;;;;;;;;;;4992847;28;20022;-60
2021/09/30 11:52:23;;;;;;;16.35;2.33;;;;;;;;;;4998569;28;20377;-59
2021/09/30 11:54:49;;;;;;;14.10;1.73;;;;;;;;;;4996277;28;20037;-60
2021/09/30 11:57:25;;;;;;;14.27;2.55;;;;;;;;;;4996791;28;20030;-59
2021/09/30 11:59:51;;;;;;;18.65;2.42;;;;;;;;;;4990075;28;20433;-59
2021/09/30 12:02:17;;;;;;;19.42;2.08;;;;;;;;;;5000356;28;20033;-60
2021/09/30 12:07:15;;;;;;;19.00;1.73;;;;;;;;;;4993405;28;20121;-60
2021/09/30 12:09:41;;;;;;;11.02;1.73;;;;;;;;;;4998041;28;20335;-59
2021/09/30 12:12:07;;;;;;;13.90;1.60;;;;;;;;;;4990990;28;20056;-59
2021/09/30 12:14:48;;;;;;;11.48;2.08;;;;;;;;;;4997466;28;20523;-59
2021/09/30 12:17:16;;;;;;;10.65;1.50;;;;;;;;;;5009574;28;20056;-59
2021/09/30 12:19:45;;;;;;;15.15;2.08;;;;;;;;;;4992956;28;20036;-59
2021/09/30 12:22:18;;;;;;;13.98;1.67;;;;;;;;;;5000682;28;20026;-59
2021/09/30 12:24:47;;;;;;;12.57;1.40;;;;;;;;;;4992450;28;20084;-60
2021/09/30 12:27:13;;;;;;;16.95;2.47;;;;;;;;;;4996866;28;20038;-60
2021/09/30 12:29:44;;;;;;;11.18;2.17;;;;;;;;;;4998835;28;20042;-60
2021/09/30 12:32:12;;;;;;;12.00;1.58;;;;;;;;;;4992926;28;20038;-58
2021/09/30 12:34:39;;;;;;;6.88;1.42;;;;;;;;;;4998692;28;20025;-60
2021/09/30 12:37:04;;;;;;;7.32;1.40;;;;;;;;;;4994139;28;20032;-58
2021/09/30 12:39:32;;;;;;;10.40;1.50;;;;;;;;;;4992817;28;20030;-60
2021/09/30 12:42:16;;;;;;;10.77;1.30;;;;;;;;;;4994330;28;20026;-58
2021/09/30 12:44:48;;;;;;;7.18;1.58;;;;;;;;;;4994539;28;20061;-58
2021/09/30 12:47:35;;;;;;;13.43;1.38;;;;;;;;;;4998905;28;20093;-58
2021/09/30 12:50:12;;;;;;;12.65;1.60;;;;;;;;;;4994666;28;20022;-57
2021/09/30 12:52:39;;;;;;;10.30;1.30;;;;;;;;;;4994988;28;20034;-60
2021/09/30 12:55:26;;;;;;;8.13;1.27;;;;;;;;;;4997506;28;20026;-58
2021/09/30 12:57:52;;;;;;;10.35;2.28;;;;;;;;;;4992234;28;20137;-58
2021/09/30 13:00:20;;;;;;;14.90;2.17;;;;;;;;;;4992477;28;20066;-58
2021/09/30 13:02:48;;;;;;;10.43;1.35;;;;;;;;;;4998572;28;20505;-58
2021/09/30 13:05:16;;;;;;;17.38;2.80;;;;;;;;;;5000897;28;20035;-58
2021/09/30 13:07:57;;;;;;;16.38;1.88;;;;;;;;;;5003585;28;20429;-58
2021/09/30 13:10:34;;;;;;;9.23;1.67;;;;;;;;;;4998174;28;20025;-58
2021/09/30 13:13:03;;;;;;;15.65;2.08;;;;;;;;;;4993750;28;20274;-58
2021/09/30 13:15:42;;;;;;;15.85;2.10;;;;;;;;;;4994576;28;20030;-58
2021/09/30 13:18:10;;;;;;;17.55;2.42;;;;;;;;;;4996629;28;20088;-58
2021/09/30 13:20:36;;;;;;;19.85;2.75;;;;;;;;;;4999320;28;20027;-58
2021/09/30 13:23:02;;;;;;;19.58;2.45;;;;;;;;;;4999905;28;20420;-58
2021/09/30 13:25:28;;;;;;;23.30;2.90;;;;;;;;;;4998397;28;20034;-58
2021/09/30 13:27:54;;;;;;;16.92;2.20;;;;;;;;;;4995427;28;20100;-58
2021/09/30 13:30:25;;;;;;;14.02;1.98;;;;;;;;;;4999862;28;20030;-58
2021/09/30 13:32:52;;;;;;;24.23;2.58;;;;;;;;;;5003654;28;20034;-57
2021/09/30 13:35:23;;;;;;;17.60;1.90;;;;;;;;;;4991754;28;20058;-58
2021/09/30 13:37:49;;;;;;;19.50;2.05;;;;;;;;;;4996997;28;20030;-58
2021/09/30 13:40:14;;;;;;;26.88;4.18;;;;;;;;;;4999520;28;20060;-58
2021/09/30 13:42:40;;;;;;;23.40;2.95;;;;;;;;;;5002313;28;20033;-61
2021/09/30 13:45:12;;;;;;;15.68;2.47;;;;;;;;;;4997426;28;20044;-58
2021/09/30 13:47:38;;;;;;;19.60;2.65;;;;;;;;;;5001574;28;20168;-58
2021/09/30 13:50:06;;;;;;;18.20;2.15;;;;;;;;;;4994931;28;20040;-58
2021/09/30 13:52:32;;;;;;;21.95;2.20;;;;;;;;;;4997006;28;20030;-59
2021/09/30 13:54:58;;;;;;;16.10;2.17;;;;;;;;;;4994731;28;20564;-58
2021/09/30 13:57:23;;;;;;;23.40;2.78;;;;;;;;;;4996071;28;20036;-58
2021/09/30 13:59:49;;;;;;;19.27;2.75;;;;;;;;;;5000479;28;20459;-58
2021/09/30 14:02:15;;;;;;;16.30;2.90;;;;;;;;;;4985588;28;20034;-59
2021/09/30 14:04:43;;;;;;;14.52;2.33;;;;;;;;;;4996843;28;20101;-58
2021/09/30 14:07:09;;;;;;;18.38;2.40;;;;;;;;;;4996904;28;20602;-58
2021/09/30 14:09:36;;;;;;;17.55;2.40;;;;;;;;;;4999037;28;20053;-59
2021/09/30 14:12:04;;;;;;;18.35;2.50;;;;;;;;;;4995180;28;20033;-58
2021/09/30 14:14:30;;;;;;;14.40;1.80;;;;;;;;;;4993444;28;20034;-59
2021/09/30 14:16:55;;;;;;;21.63;2.20;;;;;;;;;;4992505;28;20027;-58
2021/09/30 14:19:25;;;;;;;15.93;2.95;;;;;;;;;;5001905;28;20096;-58
2021/09/30 14:21:52;;;;;;;18.73;2.10;;;;;;;;;;4997040;28;20102;-57
2021/09/30 14:24:17;;;;;;;16.13;2.10;;;;;;;;;;4998611;28;20570;-58
2021/09/30 14:26:43;;;;;;;16.15;2.15;;;;;;;;;;4993313;28;20034;-57
2021/09/30 14:29:08;;;;;;;22.45;2.33;;;;;;;;;;4999749;28;20390;-58
2021/09/30 14:31:34;;;;;;;16.58;2.15;;;;;;;;;;5000437;28;20026;-58
2021/09/30 14:34:00;;;;;;;15.55;1.88;;;;;;;;;;4996112;28;20022;-57
2021/09/30 14:36:25;;;;;;;20.88;2.20;;;;;;;;;;4994858;28;20018;-57
2021/09/30 14:38:51;;;;;;;14.10;2.35;;;;;;;;;;5001925;28;20022;-58
2021/09/30 14:41:16;;;;;;;22.13;2.97;;;;;;;;;;4998657;28;20025;-58
2021/09/30 14:43:42;;;;;;;13.43;2.95;;;;;;;;;;5000545;28;20405;-57
2021/09/30 14:46:09;;;;;;;16.40;2.90;;;;;;;;;;4994226;28;20422;-58
2021/09/30 14:48:38;;;;;;;17.23;2.35;;;;;;;;;;4997541;28;20030;-58
2021/09/30 14:51:06;;;;;;;18.67;2.42;;;;;;;;;;5002579;28;20614;-58
2021/09/30 14:53:33;;;;;;;23.00;2.67;;;;;;;;;;4998192;28;20100;-58
2021/09/30 14:55:58;;;;;;;16.50;3.25;;;;;;;;;;4998466;28;20030;-58
2021/09/30 14:58:24;;;;;;;16.58;3.58;;;;;;;;;;4993132;28;20421;-58
2021/09/30 15:00:49;;;;;;;18.67;2.72;;;;;;;;;;4991176;28;20035;-58
2021/09/30 15:03:15;;;;;;;18.70;2.17;;;;;;;;;;4995583;28;20092;-58
2021/09/30 15:05:41;;;;;;;17.25;2.10;;;;;;;;;;4995518;28;20050;-58
2021/09/30 15:08:07;;;;;;;21.67;3.40;;;;;;;;;;4994715;28;20038;-58
2021/09/30 15:10:32;;;;;;;17.33;2.78;;;;;;;;;;5002221;28;20092;-57
2021/09/30 15:12:58;;;;;;;15.85;2.78;;;;;;;;;;5002225;28;20400;-58
2021/09/30 15:15:25;;;;;;;25.88;2.45;;;;;;;;;;4999125;28;20523;-58
2021/09/30 15:17:57;;;;;;;18.08;2.33;;;;;;;;;;4994453;28;20327;-58
2021/09/30 15:23:22;;;;;;;17.58;2.97;;;;;;;;;;5000504;28;20045;-58
2021/09/30 15:25:47;;;;;;;17.60;2.53;;;;;;;;;;5008420;28;20605;-58
2021/09/30 15:28:15;;;;;;;24.02;3.45;;;;;;;;;;4999850;28;20121;-56
2021/09/30 15:30:42;;;;;;;17.30;2.50;;;;;;;;;;4994739;28;20026;-58
2021/09/30 15:33:10;;;;;;;17.10;2.80;;;;;;;;;;5003218;28;20116;-58
2021/09/30 15:35:36;;;;;;;23.88;2.25;;;;;;;;;;4993169;28;20027;-58
2021/09/30 15:38:02;;;;;;;16.42;3.47;;;;;;;;;;4999741;28;20037;-58
2021/09/30 15:40:28;;;;;;;19.23;2.65;;;;;;;;;;5002569;28;20039;-58
2021/09/30 15:42:53;;;;;;;28.17;3.13;;;;;;;;;;4998818;28;20168;-58
2021/09/30 15:45:20;;;;;;;19.88;2.70;;;;;;;;;;5001121;28;20147;-58
2021/09/30 15:47:46;;;;;;;23.17;2.67;;;;;;;;;;5000001;28;20030;-58
2021/09/30 15:50:12;;;;;;;22.02;2.42;;;;;;;;;;4995741;28;20037;-57
2021/09/30 15:52:38;;;;;;;24.83;3.58;;;;;;;;;;4998835;28;20029;-58
2021/09/30 15:55:05;;;;;;;25.30;3.80;;;;;;;;;;4995075;28;20112;-58
2021/09/30 15:57:30;;;;;;;17.33;3.47;;;;;;;;;;4994705;28;20026;-58
2021/09/30 15:59:56;;;;;;;17.45;2.40;;;;;;;;;;4996419;28;20045;-58
2021/09/30 16:02:21;;;;;;;20.92;3.00;;;;;;;;;;5000253;28;20180;-58
2021/09/30 16:04:47;;;;;;;24.60;2.88;;;;;;;;;;4999790;28;20111;-58
2021/09/30 16:07:12;;;;;;;20.65;2.55;;;;;;;;;;5002857;28;20034;-59
2021/09/30 16:09:38;;;;;;;24.38;2.60;;;;;;;;;;5001320;28;20037;-58
2021/09/30 16:12:04;;;;;;;22.73;2.92;;;;;;;;;;5001735;28;20034;-58
2021/09/30 16:14:32;;;;;;;20.35;2.75;;;;;;;;;;5004442;28;20077;-58
2021/09/30 16:16:57;;;;;;;19.65;2.65;;;;;;;;;;5006102;28;20036;-58
2021/09/30 16:19:26;;;;;;;23.38;3.50;;;;;;;;;;5002826;28;20034;-58
2021/09/30 16:21:52;;;;;;;24.48;2.78;;;;;;;;;;4998071;28;20034;-59
2021/09/30 16:24:19;;;;;;;21.10;2.92;;;;;;;;;;4994953;28;20030;-58
2021/09/30 16:26:45;;;;;;;16.10;2.83;;;;;;;;;;4994626;28;20034;-58
2021/09/30 16:29:11;;;;;;;21.67;4.47;;;;;;;;;;5004867;28;20108;-58
2021/09/30 16:31:37;;;;;;;21.98;2.20;;;;;;;;;;4996815;28;20061;-58
2021/09/30 16:34:07;;;;;;;24.27;3.47;;;;;;;;;;5003280;28;20034;-58
2021/09/30 16:36:33;;;;;;;18.58;2.42;;;;;;;;;;4996508;28;20029;-58
2021/09/30 16:38:59;;;;;;;17.73;2.83;;;;;;;;;;4999993;28;20038;-58
2021/09/30 16:41:26;;;;;;;11.95;2.45;;;;;;;;;;5002057;28;20041;-58
2021/09/30 16:43:52;;;;;;;19.80;2.50;;;;;;;;;;5004089;28;20656;-58
2021/09/30 16:46:20;;;;;;;14.30;3.22;;;;;;;;;;5000949;28;20030;-58
2021/09/30 16:48:46;;;;;;;12.75;2.72;;;;;;;;;;5002641;28;20067;-59
2021/09/30 16:51:12;;;;;;;19.05;3.17;;;;;;;;;;4996503;28;20034;-58
2021/09/30 16:53:37;;;;;;;20.55;2.22;;;;;;;;;;4994523;28;20038;-58
2021/09/30 16:56:03;;;;;;;18.42;2.88;;;;;;;;;;4994960;28;20046;-58
2021/09/30 16:58:29;;;;;;;22.55;2.38;;;;;;;;;;4999616;28;20524;-59
2021/09/30 17:00:54;;;;;;;13.68;2.10;;;;;;;;;;4998431;28;20030;-58
2021/09/30 17:03:20;;;;;;;18.95;2.42;;;;;;;;;;4997249;28;20042;-58
2021/09/30 17:05:45;;;;;;;17.85;2.83;;;;;;;;;;4999178;28;20025;-58
2021/09/30 17:08:11;;;;;;;18.95;2.45;;;;;;;;;;4998466;28;20032;-58
2021/09/30 17:10:36;;;;;;;15.55;2.88;;;;;;;;;;4995659;28;20437;-58
2021/09/30 17:13:02;;;;;;;18.92;3.13;;;;;;;;;;5003824;28;20177;-58
2021/09/30 17:15:28;;;;;;;22.27;2.80;;;;;;;;;;5002924;28;20396;-58
2021/09/30 17:17:54;;;;;;;12.38;2.00;;;;;;;;;;4992424;28;20103;-59
2021/09/30 17:20:23;;;;;;;19.17;2.92;;;;;;;;;;5002185;28;20144;-59
2021/09/30 17:22:50;;;;;;;22.05;2.65;;;;;;;;;;4998986;28;20026;-58
2021/09/30 17:25:19;;;;;;;11.93;2.05;;;;;;;;;;4996093;28;20033;-59
2021/09/30 17:27:46;;;;;;;11.60;1.70;;;;;;;;;;4999118;28;20025;-59
2021/09/30 17:30:15;;;;;;;16.10;2.08;;;;;;;;;;4997957;28;20533;-57
2021/09/30 17:32:41;;;;;;;14.85;1.95;;;;;;;;;;5000784;28;20034;-59
2021/09/30 17:35:08;;;;;;;13.77;1.98;;;;;;;;;;5002517;28;20096;-58
2021/09/30 17:37:35;;;;;;;18.70;2.75;;;;;;;;;;4994466;28;20030;-58
2021/09/30 17:40:00;;;;;;;14.98;1.92;;;;;;;;;;5001533;28;20032;-58
2021/09/30 17:42:26;;;;;;;11.75;1.90;;;;;;;;;;4997909;28;20044;-58
2021/09/30 17:44:52;;;;;;;15.10;2.00;;;;;;;;;;4996356;28;20037;-58
2021/09/30 17:47:17;;;;;;;15.70;2.20;;;;;;;;;;4996124;28;20038;-58
2021/09/30 17:49:45;;;;;;;14.98;2.75;;;;;;;;;;4994183;28;20030;-58
2021/09/30 17:52:10;;;;;;;14.65;2.60;;;;;;;;;;4995761;28;20520;-58
2021/09/30 17:54:38;;;;;;;24.60;4.75;;;;;;;;;;4992513;28;20072;-58
2021/09/30 17:57:04;;;;;;;20.63;2.45;;;;;;;;;;4998890;28;20037;-58
2021/09/30 17:59:30;;;;;;;19.05;3.15;;;;;;;;;;4997467;28;20084;-58
2021/09/30 18:01:55;;;;;;;13.52;1.70;;;;;;;;;;5001363;28;20033;-58
2021/09/30 18:04:21;;;;;;;16.50;2.40;;;;;;;;;;5000137;28;20057;-58
2021/09/30 18:06:46;;;;;;;14.70;2.35;;;;;;;;;;4997028;28;20041;-58
2021/09/30 18:09:12;;;;;;;23.00;1.92;;;;;;;;;;5000601;28;20034;-58
2021/09/30 18:11:38;;;;;;;13.18;1.85;;;;;;;;;;4997694;28;20436;-58
2021/09/30 18:14:03;;;;;;;12.77;1.65;;;;;;;;;;4997572;28;20088;-58
2021/09/30 18:16:33;;;;;;;15.73;2.25;;;;;;;;;;5000597;28;20539;-58
2021/09/30 18:18:59;;;;;;;16.48;2.40;;;;;;;;;;4997358;28;20440;-58
2021/09/30 18:21:25;;;;;;;15.40;2.03;;;;;;;;;;4997178;28;20031;-58
2021/09/30 18:23:56;;;;;;;12.48;2.75;;;;;;;;;;4991072;28;20077;-58
2021/09/30 18:26:21;;;;;;;15.82;2.10;;;;;;;;;;4996598;28;20029;-58
2021/09/30 18:28:50;;;;;;;10.77;1.77;;;;;;;;;;4998466;28;20492;-57
2021/09/30 18:31:19;;;;;;;11.00;3.15;;;;;;;;;;4997005;28;20022;-58
2021/09/30 18:33:47;;;;;;;13.02;1.80;;;;;;;;;;4998669;28;20026;-59
2021/09/30 18:36:13;;;;;;;12.15;1.77;;;;;;;;;;4995255;28;20034;-58
2021/09/30 18:38:40;;;;;;;10.77;1.73;;;;;;;;;;4991084;28;20041;-58
2021/09/30 18:41:09;;;;;;;14.27;1.95;;;;;;;;;;4995769;28;20034;-58
2021/09/30 18:43:37;;;;;;;17.95;2.20;;;;;;;;;;4993138;28;20076;-57
2021/09/30 18:46:03;;;;;;;11.95;2.58;;;;;;;;;;4997530;28;20041;-58
2021/09/30 18:48:30;;;;;;;9.40;1.35;;;;;;;;;;4998926;28;20030;-58
2021/09/30 18:50:55;;;;;;;16.63;2.85;;;;;;;;;;4995196;28;22350;-58
2021/09/30 18:53:21;;;;;;;9.57;1.25;;;;;;;;;;4994869;28;20129;-58
2021/09/30 18:55:47;;;;;;;11.85;1.88;;;;;;;;;;4998709;28;20034;-57
2021/09/30 18:58:13;;;;;;;12.75;1.60;;;;;;;;;;4998768;28;20421;-58
2021/09/30 19:00:38;;;;;;;12.23;1.80;;;;;;;;;;4993488;28;20038;-58
2021/09/30 19:03:04;;;;;;;9.15;1.40;;;;;;;;;;4988693;28;21068;-58
2021/09/30 19:05:33;;;;;;;10.50;1.40;;;;;;;;;;4992713;28;20086;-58
2021/09/30 19:08:04;;;;;;;6.22;1.95;;;;;;;;;;4996754;28;20608;-58
2021/09/30 19:10:30;;;;;;;6.45;1.48;;;;;;;;;;4994401;28;20037;-57